London Township, Michigan
Current Conditions -  °F | °C
As of 12:53 AM on Tuesday 21 Oct 2014 (Local Time) from KARB Reporting Station
Overcast Overcast  
Wind Chill: 45°   Ceiling: 1900
Heat Index: 49°   Visibility: 10mi
Dew Point: 43°   Wind: 8mph
Humidity: 80%   Direction: 340°NNW
Pressure: 29.88"   Gusts: NA
Location:  42.0828°N, 83.683°W
Report Text: KARB 210453Z AUTO 34007KT 10SM OVC019 09/06 A2988 RMK AO2 RAE24 SLP121 P0000 T00940061 401440067
Loading
Personal Weather Stations






























Interactive Weather Map
Tropical Storm Tracking
New forecast layout! Learn more

10-Day Weather Forecast

Advertisements
Track Severe Weather on mobile